Terminal Aerodrome Forecast
Issued by NWS Portland, OR

Home | Current Version | Previous Version | Text Only | Print | Product List | Glossary On
Versions: 1 2 3 4 5 6 7 8 9 10 11 12 13 14 15 16
000
FTUS46 KPQR 300520
TAFSLE
TAF
KSLE 300520Z 3006/3106 23006KT P6SM SCT025 BKN035 OVC050
     FM300900 20006KT P6SM -SHRA BKN025 OVC045
     FM301400 20006KT P6SM -SHRA SCT025 BKN035 BKN060
     FM302000 25008KT P6SM VCSH SCT030 BKN060
     FM310000 30007KT P6SM SCT035 BKN060=

USA.gov is the U.S. government's official web portal to all federal, state and local government web resources and services.